sensor_id;sensor_type;location;lat;lon;timestamp;P1;durP1;ratioP1;P2;durP2;ratioP2
23181;SDS011;11759;51.282;6.642;2023-02-11T00:01:39;54.38;;;24.70;;
23181;SDS011;11759;51.282;6.642;2023-02-11T00:04:06;57.97;;;23.80;;
23181;SDS011;11759;51.282;6.642;2023-02-11T00:06:33;55.33;;;22.58;;
23181;SDS011;11759;51.282;6.642;2023-02-11T00:09:01;50.95;;;23.35;;
23181;SDS011;11759;51.282;6.642;2023-02-11T00:11:29;57.38;;;23.75;;
23181;SDS011;11759;51.282;6.642;2023-02-11T00:13:59;56.60;;;24.02;;
23181;SDS011;11759;51.282;6.642;2023-02-11T00:16:28;54.33;;;24.05;;
23181;SDS011;11759;51.282;6.642;2023-02-11T00:18:59;55.28;;;23.35;;
23181;SDS011;11759;51.282;6.642;2023-02-11T00:21:27;59.05;;;24.30;;
23181;SDS011;11759;51.282;6.642;2023-02-11T00:23:55;54.47;;;23.88;;
23181;SDS011;11759;51.282;6.642;2023-02-11T00:26:23;56.33;;;22.55;;
23181;SDS011;11759;51.282;6.642;2023-02-11T00:28:52;61.50;;;24.40;;
23181;SDS011;11759;51.282;6.642;2023-02-11T00:31:20;56.05;;;22.92;;
23181;SDS011;11759;51.282;6.642;2023-02-11T00:33:48;51.83;;;23.35;;
23181;SDS011;11759;51.282;6.642;2023-02-11T00:36:16;51.22;;;23.38;;
23181;SDS011;11759;51.282;6.642;2023-02-11T00:38:45;46.15;;;21.42;;
23181;SDS011;11759;51.282;6.642;2023-02-11T00:41:13;52.53;;;23.38;;
23181;SDS011;11759;51.282;6.642;2023-02-11T00:43:40;47.38;;;20.30;;
23181;SDS011;11759;51.282;6.642;2023-02-11T00:46:07;50.22;;;23.75;;
23181;SDS011;11759;51.282;6.642;2023-02-11T00:48:34;55.42;;;23.75;;
23181;SDS011;11759;51.282;6.642;2023-02-11T00:51:00;55.92;;;21.92;;
23181;SDS011;11759;51.282;6.642;2023-02-11T00:53:29;51.15;;;23.83;;
23181;SDS011;11759;51.282;6.642;2023-02-11T00:55:56;54.42;;;23.40;;
23181;SDS011;11759;51.282;6.642;2023-02-11T00:58:24;50.42;;;23.27;;
23181;SDS011;11759;51.282;6.642;2023-02-11T01:00:51;53.42;;;23.77;;
23181;SDS011;11759;51.282;6.642;2023-02-11T01:03:17;50.88;;;22.67;;
23181;SDS011;11759;51.282;6.642;2023-02-11T01:05:44;55.58;;;24.73;;
23181;SDS011;11759;51.282;6.642;2023-02-11T01:08:11;58.92;;;24.52;;
23181;SDS011;11759;51.282;6.642;2023-02-11T01:10:37;56.40;;;24.40;;
23181;SDS011;11759;51.282;6.642;2023-02-11T01:13:04;62.85;;;26.20;;
23181;SDS011;11759;51.282;6.642;2023-02-11T01:15:31;54.15;;;24.73;;
23181;SDS011;11759;51.282;6.642;2023-02-11T01:17:58;55.35;;;23.80;;
23181;SDS011;11759;51.282;6.642;2023-02-11T01:20:25;59.33;;;23.55;;
23181;SDS011;11759;51.282;6.642;2023-02-11T01:22:55;54.88;;;24.38;;
23181;SDS011;11759;51.282;6.642;2023-02-11T01:25:22;49.75;;;23.70;;
23181;SDS011;11759;51.282;6.642;2023-02-11T01:27:48;58.83;;;23.30;;
23181;SDS011;11759;51.282;6.642;2023-02-11T01:30:15;57.10;;;25.60;;
23181;SDS011;11759;51.282;6.642;2023-02-11T01:32:41;59.17;;;25.05;;
23181;SDS011;11759;51.282;6.642;2023-02-11T01:35:08;60.67;;;24.85;;
23181;SDS011;11759;51.282;6.642;2023-02-11T01:37:35;51.38;;;23.65;;
23181;SDS011;11759;51.282;6.642;2023-02-11T01:40:02;57.53;;;25.80;;
23181;SDS011;11759;51.282;6.642;2023-02-11T01:42:31;53.70;;;24.80;;
23181;SDS011;11759;51.282;6.642;2023-02-11T01:44:58;57.20;;;23.98;;
23181;SDS011;11759;51.282;6.642;2023-02-11T01:47:26;53.58;;;24.63;;
23181;SDS011;11759;51.282;6.642;2023-02-11T01:49:54;59.63;;;24.23;;
23181;SDS011;11759;51.282;6.642;2023-02-11T01:52:25;53.28;;;23.65;;
23181;SDS011;11759;51.282;6.642;2023-02-11T01:54:54;49.95;;;22.10;;
23181;SDS011;11759;51.282;6.642;2023-02-11T01:57:42;57.22;;;22.65;;
23181;SDS011;11759;51.282;6.642;2023-02-11T02:00:18;48.13;;;22.95;;
23181;SDS011;11759;51.282;6.642;2023-02-11T02:02:59;54.57;;;23.00;;
23181;SDS011;11759;51.282;6.642;2023-02-11T02:10:45;56.75;;;23.30;;
23181;SDS011;11759;51.282;6.642;2023-02-11T02:13:15;50.47;;;22.73;;
23181;SDS011;11759;51.282;6.642;2023-02-11T02:15:48;54.30;;;22.17;;
23181;SDS011;11759;51.282;6.642;2023-02-11T02:21:09;57.67;;;22.85;;
23181;SDS011;11759;51.282;6.642;2023-02-11T02:29:21;50.33;;;22.27;;
23181;SDS011;11759;51.282;6.642;2023-02-11T02:32:15;48.17;;;19.98;;
23181;SDS011;11759;51.282;6.642;2023-02-11T02:35:03;46.10;;;20.52;;
23181;SDS011;11759;51.282;6.642;2023-02-11T02:40:24;46.50;;;20.75;;
23181;SDS011;11759;51.282;6.642;2023-02-11T02:42:54;45.58;;;19.95;;
23181;SDS011;11759;51.282;6.642;2023-02-11T02:45:20;46.38;;;21.60;;
23181;SDS011;11759;51.282;6.642;2023-02-11T02:47:47;52.28;;;20.60;;
23181;SDS011;11759;51.282;6.642;2023-02-11T02:50:14;52.55;;;19.73;;
23181;SDS011;11759;51.282;6.642;2023-02-11T02:55:39;46.47;;;20.83;;
23181;SDS011;11759;51.282;6.642;2023-02-11T03:00:51;49.13;;;21.23;;
23181;SDS011;11759;51.282;6.642;2023-02-11T03:05:53;52.88;;;21.23;;
23181;SDS011;11759;51.282;6.642;2023-02-11T03:09:11;46.78;;;20.98;;
23181;SDS011;11759;51.282;6.642;2023-02-11T03:11:18;48.38;;;21.27;;
23181;SDS011;11759;51.282;6.642;2023-02-11T03:13:45;53.38;;;19.70;;
23181;SDS011;11759;51.282;6.642;2023-02-11T03:16:15;42.33;;;19.95;;
23181;SDS011;11759;51.282;6.642;2023-02-11T03:18:47;43.72;;;19.30;;
23181;SDS011;11759;51.282;6.642;2023-02-11T03:21:16;45.57;;;20.17;;
23181;SDS011;11759;51.282;6.642;2023-02-11T03:23:51;55.70;;;19.83;;
23181;SDS011;11759;51.282;6.642;2023-02-11T03:26:22;48.05;;;20.05;;
23181;SDS011;11759;51.282;6.642;2023-02-11T03:28:59;48.97;;;19.50;;
23181;SDS011;11759;51.282;6.642;2023-02-11T03:31:35;46.47;;;20.60;;
23181;SDS011;11759;51.282;6.642;2023-02-11T03:34:13;44.88;;;18.85;;
23181;SDS011;11759;51.282;6.642;2023-02-11T03:36:45;38.55;;;18.67;;
23181;SDS011;11759;51.282;6.642;2023-02-11T03:39:20;46.72;;;19.75;;
23181;SDS011;11759;51.282;6.642;2023-02-11T03:41:50;42.13;;;18.90;;
23181;SDS011;11759;51.282;6.642;2023-02-11T03:44:17;41.00;;;17.65;;
23181;SDS011;11759;51.282;6.642;2023-02-11T03:46:47;64.38;;;20.55;;
23181;SDS011;11759;51.282;6.642;2023-02-11T03:49:16;44.58;;;19.05;;
23181;SDS011;11759;51.282;6.642;2023-02-11T03:51:45;45.15;;;19.05;;
23181;SDS011;11759;51.282;6.642;2023-02-11T03:54:16;40.42;;;18.92;;
23181;SDS011;11759;51.282;6.642;2023-02-11T03:56:48;38.85;;;19.17;;
23181;SDS011;11759;51.282;6.642;2023-02-11T03:59:17;50.70;;;17.90;;
23181;SDS011;11759;51.282;6.642;2023-02-11T04:01:44;42.55;;;17.90;;
23181;SDS011;11759;51.282;6.642;2023-02-11T04:04:10;44.85;;;17.83;;
23181;SDS011;11759;51.282;6.642;2023-02-11T04:06:37;43.65;;;19.63;;
23181;SDS011;11759;51.282;6.642;2023-02-11T04:09:04;47.78;;;18.67;;
23181;SDS011;11759;51.282;6.642;2023-02-11T04:11:30;51.85;;;18.77;;
23181;SDS011;11759;51.282;6.642;2023-02-11T04:13:57;39.83;;;17.60;;
23181;SDS011;11759;51.282;6.642;2023-02-11T04:16:25;40.95;;;17.60;;
23181;SDS011;11759;51.282;6.642;2023-02-11T04:18:51;40.58;;;17.38;;
23181;SDS011;11759;51.282;6.642;2023-02-11T04:21:18;51.85;;;18.25;;
23181;SDS011;11759;51.282;6.642;2023-02-11T04:23:45;48.38;;;18.60;;
23181;SDS011;11759;51.282;6.642;2023-02-11T04:26:11;50.92;;;19.02;;
23181;SDS011;11759;51.282;6.642;2023-02-11T04:28:38;48.72;;;18.33;;
23181;SDS011;11759;51.282;6.642;2023-02-11T04:31:04;50.30;;;20.02;;
23181;SDS011;11759;51.282;6.642;2023-02-11T04:33:31;51.78;;;20.30;;
23181;SDS011;11759;51.282;6.642;2023-02-11T04:35:57;48.30;;;20.10;;
23181;SDS011;11759;51.282;6.642;2023-02-11T04:38:24;52.70;;;20.50;;
23181;SDS011;11759;51.282;6.642;2023-02-11T04:40:51;45.53;;;19.50;;
23181;SDS011;11759;51.282;6.642;2023-02-11T04:43:17;51.92;;;19.33;;
23181;SDS011;11759;51.282;6.642;2023-02-11T04:45:44;52.88;;;21.40;;
23181;SDS011;11759;51.282;6.642;2023-02-11T04:48:10;53.08;;;22.05;;
23181;SDS011;11759;51.282;6.642;2023-02-11T04:50:37;58.55;;;21.58;;
23181;SDS011;11759;51.282;6.642;2023-02-11T04:53:03;54.58;;;21.45;;
23181;SDS011;11759;51.282;6.642;2023-02-11T04:55:30;52.90;;;21.67;;
23181;SDS011;11759;51.282;6.642;2023-02-11T04:57:56;52.85;;;21.35;;
23181;SDS011;11759;51.282;6.642;2023-02-11T05:00:23;51.25;;;20.75;;
23181;SDS011;11759;51.282;6.642;2023-02-11T05:02:50;51.85;;;20.83;;
23181;SDS011;11759;51.282;6.642;2023-02-11T05:05:17;55.33;;;23.15;;
23181;SDS011;11759;51.282;6.642;2023-02-11T05:07:43;53.08;;;21.55;;
23181;SDS011;11759;51.282;6.642;2023-02-11T05:10:10;62.40;;;20.95;;
23181;SDS011;11759;51.282;6.642;2023-02-11T05:12:36;54.83;;;21.10;;
23181;SDS011;11759;51.282;6.642;2023-02-11T05:15:03;60.42;;;21.15;;
23181;SDS011;11759;51.282;6.642;2023-02-11T05:17:30;57.10;;;20.75;;
23181;SDS011;11759;51.282;6.642;2023-02-11T05:19:56;53.40;;;22.85;;
23181;SDS011;11759;51.282;6.642;2023-02-11T05:22:23;54.65;;;21.02;;
23181;SDS011;11759;51.282;6.642;2023-02-11T05:24:49;56.30;;;21.67;;
23181;SDS011;11759;51.282;6.642;2023-02-11T05:27:16;60.35;;;22.17;;
23181;SDS011;11759;51.282;6.642;2023-02-11T05:29:42;59.55;;;21.38;;
23181;SDS011;11759;51.282;6.642;2023-02-11T05:32:09;55.40;;;21.02;;
23181;SDS011;11759;51.282;6.642;2023-02-11T05:34:35;51.53;;;20.77;;
23181;SDS011;11759;51.282;6.642;2023-02-11T05:37:02;62.47;;;23.60;;
23181;SDS011;11759;51.282;6.642;2023-02-11T05:39:28;61.72;;;21.75;;
23181;SDS011;11759;51.282;6.642;2023-02-11T05:41:55;57.05;;;23.65;;
23181;SDS011;11759;51.282;6.642;2023-02-11T05:44:22;56.30;;;22.90;;
23181;SDS011;11759;51.282;6.642;2023-02-11T05:46:48;65.95;;;23.42;;
23181;SDS011;11759;51.282;6.642;2023-02-11T05:49:15;54.65;;;23.17;;
23181;SDS011;11759;51.282;6.642;2023-02-11T05:51:42;61.95;;;21.52;;
23181;SDS011;11759;51.282;6.642;2023-02-11T05:54:09;66.55;;;23.20;;
23181;SDS011;11759;51.282;6.642;2023-02-11T05:56:35;57.10;;;23.13;;
23181;SDS011;11759;51.282;6.642;2023-02-11T05:59:02;64.30;;;24.23;;
23181;SDS011;11759;51.282;6.642;2023-02-11T06:01:29;70.82;;;23.13;;
23181;SDS011;11759;51.282;6.642;2023-02-11T06:03:55;58.17;;;23.48;;
23181;SDS011;11759;51.282;6.642;2023-02-11T06:06:22;60.78;;;22.98;;
23181;SDS011;11759;51.282;6.642;2023-02-11T06:08:48;67.72;;;23.30;;
23181;SDS011;11759;51.282;6.642;2023-02-11T06:11:15;52.75;;;21.55;;
23181;SDS011;11759;51.282;6.642;2023-02-11T06:13:43;56.22;;;23.48;;
23181;SDS011;11759;51.282;6.642;2023-02-11T06:16:09;69.05;;;23.23;;
23181;SDS011;11759;51.282;6.642;2023-02-11T06:18:36;73.60;;;23.98;;
23181;SDS011;11759;51.282;6.642;2023-02-11T06:21:05;65.40;;;23.25;;
23181;SDS011;11759;51.282;6.642;2023-02-11T06:23:36;57.72;;;22.83;;
23181;SDS011;11759;51.282;6.642;2023-02-11T06:26:03;70.45;;;25.33;;
23181;SDS011;11759;51.282;6.642;2023-02-11T06:28:31;66.13;;;22.95;;
23181;SDS011;11759;51.282;6.642;2023-02-11T06:31:02;69.18;;;24.30;;
23181;SDS011;11759;51.282;6.642;2023-02-11T06:33:32;57.75;;;22.42;;
23181;SDS011;11759;51.282;6.642;2023-02-11T06:35:59;63.88;;;22.30;;
23181;SDS011;11759;51.282;6.642;2023-02-11T06:38:26;57.53;;;22.27;;
23181;SDS011;11759;51.282;6.642;2023-02-11T06:40:53;73.95;;;23.27;;
23181;SDS011;11759;51.282;6.642;2023-02-11T06:43:19;71.32;;;23.35;;
23181;SDS011;11759;51.282;6.642;2023-02-11T06:45:51;64.55;;;22.98;;
23181;SDS011;11759;51.282;6.642;2023-02-11T06:48:19;68.38;;;22.88;;
23181;SDS011;11759;51.282;6.642;2023-02-11T06:50:46;68.50;;;20.73;;
23181;SDS011;11759;51.282;6.642;2023-02-11T06:53:12;68.80;;;22.52;;
23181;SDS011;11759;51.282;6.642;2023-02-11T06:55:39;72.88;;;22.45;;
23181;SDS011;11759;51.282;6.642;2023-02-11T06:58:05;57.97;;;21.33;;
23181;SDS011;11759;51.282;6.642;2023-02-11T07:00:32;65.38;;;23.58;;
23181;SDS011;11759;51.282;6.642;2023-02-11T07:02:59;57.50;;;23.02;;
23181;SDS011;11759;51.282;6.642;2023-02-11T07:05:25;65.80;;;22.02;;
23181;SDS011;11759;51.282;6.642;2023-02-11T07:07:53;67.45;;;22.58;;
23181;SDS011;11759;51.282;6.642;2023-02-11T07:10:19;67.05;;;23.48;;
23181;SDS011;11759;51.282;6.642;2023-02-11T07:12:47;77.55;;;23.17;;
23181;SDS011;11759;51.282;6.642;2023-02-11T07:15:14;65.95;;;22.35;;
23181;SDS011;11759;51.282;6.642;2023-02-11T07:17:40;74.45;;;22.23;;
23181;SDS011;11759;51.282;6.642;2023-02-11T07:20:09;65.75;;;23.08;;
23181;SDS011;11759;51.282;6.642;2023-02-11T07:22:37;75.63;;;22.48;;
23181;SDS011;11759;51.282;6.642;2023-02-11T07:25:04;71.55;;;22.17;;
23181;SDS011;11759;51.282;6.642;2023-02-11T07:27:31;60.10;;;22.65;;
23181;SDS011;11759;51.282;6.642;2023-02-11T07:29:57;68.78;;;23.60;;
23181;SDS011;11759;51.282;6.642;2023-02-11T07:32:24;63.85;;;21.48;;
23181;SDS011;11759;51.282;6.642;2023-02-11T07:34:50;63.42;;;22.83;;
23181;SDS011;11759;51.282;6.642;2023-02-11T07:37:17;82.10;;;25.42;;
23181;SDS011;11759;51.282;6.642;2023-02-11T07:39:44;74.68;;;23.77;;
23181;SDS011;11759;51.282;6.642;2023-02-11T07:42:11;73.88;;;24.63;;
23181;SDS011;11759;51.282;6.642;2023-02-11T07:44:38;75.80;;;23.17;;
23181;SDS011;11759;51.282;6.642;2023-02-11T07:47:04;71.70;;;23.30;;
23181;SDS011;11759;51.282;6.642;2023-02-11T07:49:31;75.75;;;22.92;;
23181;SDS011;11759;51.282;6.642;2023-02-11T07:51:57;71.25;;;23.92;;
23181;SDS011;11759;51.282;6.642;2023-02-11T07:54:24;70.25;;;22.90;;
23181;SDS011;11759;51.282;6.642;2023-02-11T07:56:50;76.18;;;24.52;;
23181;SDS011;11759;51.282;6.642;2023-02-11T07:59:17;67.40;;;24.30;;
23181;SDS011;11759;51.282;6.642;2023-02-11T08:01:43;68.82;;;23.98;;
23181;SDS011;11759;51.282;6.642;2023-02-11T08:04:10;67.05;;;23.98;;
23181;SDS011;11759;51.282;6.642;2023-02-11T08:06:39;58.83;;;22.20;;
23181;SDS011;11759;51.282;6.642;2023-02-11T08:09:08;61.67;;;22.83;;
23181;SDS011;11759;51.282;6.642;2023-02-11T08:11:36;66.00;;;24.98;;
23181;SDS011;11759;51.282;6.642;2023-02-11T08:14:03;85.03;;;25.52;;
23181;SDS011;11759;51.282;6.642;2023-02-11T08:16:30;69.90;;;24.23;;
23181;SDS011;11759;51.282;6.642;2023-02-11T08:18:59;68.15;;;23.83;;
23181;SDS011;11759;51.282;6.642;2023-02-11T08:21:28;77.80;;;25.90;;
23181;SDS011;11759;51.282;6.642;2023-02-11T08:23:54;84.55;;;24.80;;
23181;SDS011;11759;51.282;6.642;2023-02-11T08:26:23;67.93;;;26.00;;
23181;SDS011;11759;51.282;6.642;2023-02-11T08:28:51;75.72;;;24.88;;
23181;SDS011;11759;51.282;6.642;2023-02-11T08:31:21;69.38;;;25.15;;
23181;SDS011;11759;51.282;6.642;2023-02-11T08:33:52;79.97;;;26.85;;
23181;SDS011;11759;51.282;6.642;2023-02-11T08:36:20;84.57;;;26.27;;
23181;SDS011;11759;51.282;6.642;2023-02-11T08:38:48;81.45;;;27.98;;
23181;SDS011;11759;51.282;6.642;2023-02-11T08:41:15;80.65;;;26.67;;
23181;SDS011;11759;51.282;6.642;2023-02-11T08:43:42;83.18;;;25.60;;
23181;SDS011;11759;51.282;6.642;2023-02-11T08:46:11;71.75;;;25.20;;
23181;SDS011;11759;51.282;6.642;2023-02-11T08:48:39;76.60;;;25.38;;
23181;SDS011;11759;51.282;6.642;2023-02-11T08:51:07;78.45;;;26.45;;
23181;SDS011;11759;51.282;6.642;2023-02-11T08:53:35;75.93;;;26.52;;
23181;SDS011;11759;51.282;6.642;2023-02-11T08:56:01;82.70;;;24.90;;
23181;SDS011;11759;51.282;6.642;2023-02-11T08:58:28;76.15;;;27.98;;
23181;SDS011;11759;51.282;6.642;2023-02-11T09:00:55;76.05;;;25.70;;
23181;SDS011;11759;51.282;6.642;2023-02-11T09:03:21;76.90;;;26.48;;
23181;SDS011;11759;51.282;6.642;2023-02-11T09:05:48;83.20;;;26.55;;
23181;SDS011;11759;51.282;6.642;2023-02-11T09:08:18;78.13;;;26.50;;
23181;SDS011;11759;51.282;6.642;2023-02-11T09:10:45;82.43;;;28.80;;
23181;SDS011;11759;51.282;6.642;2023-02-11T09:13:12;80.15;;;26.15;;
23181;SDS011;11759;51.282;6.642;2023-02-11T09:15:38;94.47;;;27.38;;
23181;SDS011;11759;51.282;6.642;2023-02-11T09:18:05;70.60;;;27.48;;
23181;SDS011;11759;51.282;6.642;2023-02-11T09:20:32;74.43;;;25.02;;
23181;SDS011;11759;51.282;6.642;2023-02-11T09:22:59;73.28;;;29.05;;
23181;SDS011;11759;51.282;6.642;2023-02-11T09:25:26;80.22;;;28.08;;
23181;SDS011;11759;51.282;6.642;2023-02-11T09:27:52;70.65;;;27.85;;
23181;SDS011;11759;51.282;6.642;2023-02-11T09:30:19;77.47;;;27.08;;
23181;SDS011;11759;51.282;6.642;2023-02-11T09:32:46;73.50;;;28.85;;
23181;SDS011;11759;51.282;6.642;2023-02-11T09:35:12;77.43;;;26.38;;
23181;SDS011;11759;51.282;6.642;2023-02-11T09:37:39;74.63;;;25.85;;
23181;SDS011;11759;51.282;6.642;2023-02-11T09:40:05;77.63;;;26.67;;
23181;SDS011;11759;51.282;6.642;2023-02-11T09:42:43;68.90;;;25.50;;
23181;SDS011;11759;51.282;6.642;2023-02-11T09:45:12;75.43;;;26.65;;
23181;SDS011;11759;51.282;6.642;2023-02-11T09:47:44;76.75;;;27.55;;
23181;SDS011;11759;51.282;6.642;2023-02-11T09:50:14;77.25;;;27.33;;
23181;SDS011;11759;51.282;6.642;2023-02-11T09:55:52;77.10;;;27.27;;
23181;SDS011;11759;51.282;6.642;2023-02-11T09:58:23;78.72;;;27.48;;
23181;SDS011;11759;51.282;6.642;2023-02-11T10:01:15;84.40;;;29.58;;
23181;SDS011;11759;51.282;6.642;2023-02-11T10:03:56;71.53;;;26.10;;
23181;SDS011;11759;51.282;6.642;2023-02-11T10:12:08;80.65;;;27.17;;
23181;SDS011;11759;51.282;6.642;2023-02-11T10:14:45;73.38;;;26.80;;
23181;SDS011;11759;51.282;6.642;2023-02-11T10:17:19;72.53;;;26.52;;
23181;SDS011;11759;51.282;6.642;2023-02-11T10:20:20;80.20;;;27.55;;
23181;SDS011;11759;51.282;6.642;2023-02-11T10:22:59;75.65;;;26.83;;
23181;SDS011;11759;51.282;6.642;2023-02-11T10:25:38;75.83;;;26.77;;
23181;SDS011;11759;51.282;6.642;2023-02-11T10:28:12;71.65;;;27.30;;
23181;SDS011;11759;51.282;6.642;2023-02-11T10:33:39;79.05;;;28.65;;
23181;SDS011;11759;51.282;6.642;2023-02-11T10:36:12;80.00;;;28.90;;
23181;SDS011;11759;51.282;6.642;2023-02-11T10:38:39;81.95;;;29.38;;
23181;SDS011;11759;51.282;6.642;2023-02-11T10:41:08;82.05;;;29.90;;
23181;SDS011;11759;51.282;6.642;2023-02-11T10:43:46;85.32;;;27.90;;
23181;SDS011;11759;51.282;6.642;2023-02-11T10:46:15;73.72;;;27.55;;
23181;SDS011;11759;51.282;6.642;2023-02-11T10:53:40;75.18;;;28.73;;
23181;SDS011;11759;51.282;6.642;2023-02-11T10:56:06;80.05;;;29.20;;
23181;SDS011;11759;51.282;6.642;2023-02-11T10:58:43;49.47;;;19.13;;
23181;SDS011;11759;51.282;6.642;2023-02-11T11:01:12;74.38;;;27.90;;
23181;SDS011;11759;51.282;6.642;2023-02-11T11:03:50;71.07;;;28.25;;
23181;SDS011;11759;51.282;6.642;2023-02-11T11:06:27;73.57;;;28.63;;
23181;SDS011;11759;51.282;6.642;2023-02-11T11:08:56;64.40;;;27.40;;
23181;SDS011;11759;51.282;6.642;2023-02-11T11:11:23;82.28;;;28.38;;
23181;SDS011;11759;51.282;6.642;2023-02-11T11:16:22;75.53;;;27.88;;
23181;SDS011;11759;51.282;6.642;2023-02-11T11:21:48;85.13;;;29.35;;
23181;SDS011;11759;51.282;6.642;2023-02-11T11:24:25;75.82;;;27.63;;
23181;SDS011;11759;51.282;6.642;2023-02-11T11:27:00;83.43;;;30.63;;
23181;SDS011;11759;51.282;6.642;2023-02-11T11:29:38;73.93;;;28.98;;
23181;SDS011;11759;51.282;6.642;2023-02-11T11:32:12;79.30;;;30.65;;
23181;SDS011;11759;51.282;6.642;2023-02-11T11:34:52;76.20;;;28.42;;
23181;SDS011;11759;51.282;6.642;2023-02-11T11:42:28;72.43;;;26.58;;
23181;SDS011;11759;51.282;6.642;2023-02-11T11:44:57;81.32;;;30.13;;
23181;SDS011;11759;51.282;6.642;2023-02-11T11:47:28;78.03;;;29.13;;
23181;SDS011;11759;51.282;6.642;2023-02-11T11:50:04;78.03;;;29.45;;
23181;SDS011;11759;51.282;6.642;2023-02-11T11:55:53;79.15;;;29.38;;
23181;SDS011;11759;51.282;6.642;2023-02-11T11:58:17;76.38;;;27.65;;
23181;SDS011;11759;51.282;6.642;2023-02-11T12:06:39;74.00;;;30.60;;
23181;SDS011;11759;51.282;6.642;2023-02-11T12:10:10;79.38;;;29.05;;
23181;SDS011;11759;51.282;6.642;2023-02-11T12:13:02;86.25;;;28.98;;
23181;SDS011;11759;51.282;6.642;2023-02-11T12:15:50;78.53;;;29.13;;
23181;SDS011;11759;51.282;6.642;2023-02-11T12:18:38;70.45;;;28.85;;
23181;SDS011;11759;51.282;6.642;2023-02-11T12:40:41;72.10;;;29.98;;
23181;SDS011;11759;51.282;6.642;2023-02-11T12:43:12;84.22;;;31.95;;
23181;SDS011;11759;51.282;6.642;2023-02-11T12:56:36;83.65;;;31.00;;
23181;SDS011;11759;51.282;6.642;2023-02-11T12:59:16;72.60;;;29.70;;
23181;SDS011;11759;51.282;6.642;2023-02-11T13:02:57;79.47;;;30.40;;
23181;SDS011;11759;51.282;6.642;2023-02-11T13:07:48;74.75;;;29.83;;
23181;SDS011;11759;51.282;6.642;2023-02-11T13:10:21;76.07;;;29.80;;
23181;SDS011;11759;51.282;6.642;2023-02-11T13:12:51;77.38;;;29.08;;
23181;SDS011;11759;51.282;6.642;2023-02-11T13:15:37;68.32;;;29.38;;
23181;SDS011;11759;51.282;6.642;2023-02-11T13:18:09;73.30;;;29.25;;
23181;SDS011;11759;51.282;6.642;2023-02-11T13:20:57;73.18;;;30.02;;
23181;SDS011;11759;51.282;6.642;2023-02-11T13:23:38;77.93;;;29.17;;
23181;SDS011;11759;51.282;6.642;2023-02-11T13:28:53;84.20;;;32.35;;
23181;SDS011;11759;51.282;6.642;2023-02-11T13:31:25;81.85;;;30.88;;
23181;SDS011;11759;51.282;6.642;2023-02-11T13:33:54;76.13;;;30.08;;
23181;SDS011;11759;51.282;6.642;2023-02-11T13:36:21;78.68;;;31.90;;
23181;SDS011;11759;51.282;6.642;2023-02-11T13:38:56;80.18;;;30.85;;
23181;SDS011;11759;51.282;6.642;2023-02-11T13:41:29;79.07;;;30.85;;
23181;SDS011;11759;51.282;6.642;2023-02-11T13:49:19;76.22;;;31.48;;
23181;SDS011;11759;51.282;6.642;2023-02-11T13:51:48;76.45;;;30.10;;
23181;SDS011;11759;51.282;6.642;2023-02-11T13:54:22;73.30;;;29.35;;
23181;SDS011;11759;51.282;6.642;2023-02-11T13:59:48;75.40;;;30.05;;
23181;SDS011;11759;51.282;6.642;2023-02-11T14:02:23;85.65;;;31.42;;
23181;SDS011;11759;51.282;6.642;2023-02-11T14:14:01;79.05;;;30.77;;
23181;SDS011;11759;51.282;6.642;2023-02-11T14:16:29;82.78;;;30.38;;
23181;SDS011;11759;51.282;6.642;2023-02-11T14:19:04;78.65;;;30.00;;
23181;SDS011;11759;51.282;6.642;2023-02-11T14:21:35;75.50;;;30.25;;
23181;SDS011;11759;51.282;6.642;2023-02-11T14:29:30;75.73;;;28.50;;
23181;SDS011;11759;51.282;6.642;2023-02-11T14:42:24;69.10;;;28.95;;
23181;SDS011;11759;51.282;6.642;2023-02-11T14:44:53;68.53;;;27.60;;
23181;SDS011;11759;51.282;6.642;2023-02-11T14:47:23;74.20;;;31.55;;
23181;SDS011;11759;51.282;6.642;2023-02-11T14:49:53;79.78;;;30.27;;
23181;SDS011;11759;51.282;6.642;2023-02-11T14:52:32;67.32;;;28.73;;
23181;SDS011;11759;51.282;6.642;2023-02-11T15:00:56;76.78;;;30.40;;
23181;SDS011;11759;51.282;6.642;2023-02-11T15:03:28;73.50;;;28.42;;
23181;SDS011;11759;51.282;6.642;2023-02-11T15:05:58;81.65;;;29.98;;
23181;SDS011;11759;51.282;6.642;2023-02-11T15:08:26;68.38;;;29.10;;
23181;SDS011;11759;51.282;6.642;2023-02-11T15:10:53;81.68;;;30.30;;
23181;SDS011;11759;51.282;6.642;2023-02-11T15:13:21;72.35;;;29.67;;
23181;SDS011;11759;51.282;6.642;2023-02-11T15:15:56;81.13;;;30.27;;
23181;SDS011;11759;51.282;6.642;2023-02-11T15:18:25;70.45;;;29.50;;
23181;SDS011;11759;51.282;6.642;2023-02-11T15:20:56;76.88;;;30.70;;
23181;SDS011;11759;51.282;6.642;2023-02-11T15:23:24;72.00;;;29.38;;
23181;SDS011;11759;51.282;6.642;2023-02-11T15:25:52;70.50;;;29.45;;
23181;SDS011;11759;51.282;6.642;2023-02-11T15:28:22;80.28;;;29.65;;
23181;SDS011;11759;51.282;6.642;2023-02-11T15:33:30;75.00;;;28.73;;
23181;SDS011;11759;51.282;6.642;2023-02-11T15:35:58;73.72;;;29.88;;
23181;SDS011;11759;51.282;6.642;2023-02-11T15:38:26;76.15;;;29.48;;
23181;SDS011;11759;51.282;6.642;2023-02-11T15:40:56;71.18;;;29.25;;
23181;SDS011;11759;51.282;6.642;2023-02-11T15:43:40;82.40;;;31.00;;
23181;SDS011;11759;51.282;6.642;2023-02-11T15:46:12;78.18;;;30.25;;
23181;SDS011;11759;51.282;6.642;2023-02-11T15:48:45;86.57;;;31.75;;
23181;SDS011;11759;51.282;6.642;2023-02-11T15:51:19;80.25;;;30.55;;
23181;SDS011;11759;51.282;6.642;2023-02-11T15:53:49;86.95;;;31.73;;
23181;SDS011;11759;51.282;6.642;2023-02-11T15:56:28;82.20;;;31.25;;
23181;SDS011;11759;51.282;6.642;2023-02-11T15:58:56;78.28;;;30.75;;
23181;SDS011;11759;51.282;6.642;2023-02-11T16:01:29;79.35;;;30.73;;
23181;SDS011;11759;51.282;6.642;2023-02-11T16:03:59;82.47;;;32.28;;
23181;SDS011;11759;51.282;6.642;2023-02-11T16:06:34;82.75;;;32.10;;
23181;SDS011;11759;51.282;6.642;2023-02-11T16:11:57;80.63;;;32.25;;
23181;SDS011;11759;51.282;6.642;2023-02-11T16:19:27;94.60;;;32.38;;
23181;SDS011;11759;51.282;6.642;2023-02-11T16:21:54;79.55;;;32.63;;
23181;SDS011;11759;51.282;6.642;2023-02-11T16:24:31;79.35;;;32.80;;
23181;SDS011;11759;51.282;6.642;2023-02-11T16:26:59;80.40;;;34.38;;
23181;SDS011;11759;51.282;6.642;2023-02-11T16:29:27;94.90;;;35.78;;
23181;SDS011;11759;51.282;6.642;2023-02-11T16:32:06;85.10;;;33.83;;
23181;SDS011;11759;51.282;6.642;2023-02-11T16:34:34;87.38;;;33.42;;
23181;SDS011;11759;51.282;6.642;2023-02-11T16:37:02;86.38;;;35.88;;
23181;SDS011;11759;51.282;6.642;2023-02-11T16:39:29;86.95;;;34.47;;
23181;SDS011;11759;51.282;6.642;2023-02-11T16:41:56;86.55;;;35.17;;
23181;SDS011;11759;51.282;6.642;2023-02-11T16:44:23;93.68;;;35.33;;
23181;SDS011;11759;51.282;6.642;2023-02-11T16:46:53;85.30;;;33.50;;
23181;SDS011;11759;51.282;6.642;2023-02-11T16:49:21;89.03;;;36.90;;
23181;SDS011;11759;51.282;6.642;2023-02-11T16:51:53;82.75;;;34.05;;
23181;SDS011;11759;51.282;6.642;2023-02-11T16:54:22;78.28;;;33.67;;
23181;SDS011;11759;51.282;6.642;2023-02-11T16:56:48;82.70;;;32.40;;
23181;SDS011;11759;51.282;6.642;2023-02-11T16:59:15;80.20;;;32.45;;
23181;SDS011;11759;51.282;6.642;2023-02-11T17:01:42;87.82;;;34.53;;
23181;SDS011;11759;51.282;6.642;2023-02-11T17:04:30;83.45;;;33.67;;